Weather observations for the past three days for
Schenectady Airport
| Date | Time (edt) | Wind (mph) | Vis. (mi.) | Weather | Sky Cond. | Temperature (ºF) | Relative Humidity | Wind Chill (°F) | Heat Index (°F) | Pressure | Precipitation (in) | ||||||
|---|---|---|---|---|---|---|---|---|---|---|---|---|---|---|---|---|---|
| Air | Dwpt | 6 hour | altimeter (in) | sea level (mb) | 1 hr | 3 hr | 6 hr | ||||||||||
| Max. | Min. | ||||||||||||||||
| 10 | 07:46 | S 7 | 10.00 | Overcast | SCT007 BKN045 OVC110 | 53.6 | 51.8 | 94% | 29.86 | 0.0 | |||||||
| 09 | 20:54 | S 7 | 10.00 | Overcast | OVC012 | 53.6 | 51.8 | 94% | 29.81 | 0.0 | |||||||
| 09 | 12:56 | S 6 | 5.00 | Light Rain | OVC009 | 48.2 | 46.4 | 94% | 46 | 29.86 | 0.0 | ||||||
| 09 | 11:50 | S 6 | 5.00 | Light Rain | OVC006 | 46.4 | 46.4 | 100% | 44 | 29.89 | 0.0 | ||||||
| 09 | 10:48 | S 8 | 5.00 | Light Rain | OVC006 | 46.4 | 46.4 | 100% | 43 | 29.9 | 0.0 | ||||||
| 09 | 09:46 | S 6 | 5.00 | Light Rain | OVC006 | 46.4 | 44.6 | 93% | 44 | 29.9 | 0.0 | ||||||
| 09 | 08:54 | S 5 | 5.00 | Light Rain | OVC010 | 44.6 | 44.6 | 100% | 43 | 29.91 | 0.0 | ||||||
| 09 | 07:57 | Calm | 7.00 | Light Rain | SCT011 BKN048 OVC055 | 44.6 | 42.8 | 93% | 29.91 | 0.0 | |||||||
| 08 | 21:46 | Calm | 10.00 | Fair | CLR | 42.8 | 32 | 66% | 29.91 | 0.0 | |||||||
| 08 | 20:57 | Calm | 10.00 | Fair | CLR | 48.2 | 30.2 | 50% | 29.89 | 0.0 | |||||||
| 08 | 19:59 | W 5 | 10.00 | Fair | CLR | 51.8 | 30.2 | 44% | 29.87 | 0.0 | |||||||
| 08 | 18:53 | W 8 | 10.00 | Fair | CLR | 53.6 | 30.2 | 41% | 29.86 | 0.0 | |||||||
| 08 | 17:46 | NW 12 | 10.00 | Overcast | SCT060 SCT075 OVC085 | 53.6 | 30.2 | 41% | 29.85 | 0.0 | |||||||
| 08 | 16:52 | NW 12 G 17 | 10.00 | Mostly Cloudy | SCT050 BKN070 BKN080 | 55.4 | 30.2 | 38% | 29.85 | 0.0 | |||||||
| 08 | 13:53 | W 13 G 21 | 10.00 | Partly Cloudy | SCT050 SCT065 | 55.4 | 30.2 | 38% | 29.86 | 0.0 | |||||||
| 08 | 12:49 | SW 15 | 10.00 | Mostly Cloudy | SCT060 BKN080 BKN110 | 51.8 | 33.8 | 50% | 29.88 | 0.0 | |||||||
| 08 | 07:45 | W 9 | 10.00 | Fair | CLR | 44.6 | 33.8 | 66% | 40 | 29.88 | 0.0 | ||||||
| 07 | 21:49 | W 6 | 10.00 | Fair | CLR | 46.4 | 23 | 40% | 44 | 29.83 | 0.0 | ||||||
| 07 | 20:55 | W 7 | 10.00 | Fair | CLR | 48.2 | 23 | 37% | 46 | 29.81 | 0.0 | ||||||
| 07 | 19:59 | W 10 | 10.00 | Fair | CLR | 51.8 | 21.2 | 30% | 29.79 | 0.0 | |||||||
| 07 | 17:59 | W 12 G 22 | 10.00 | Partly Cloudy | SCT070 | 57.2 | 24.8 | 29% | 29.79 | 0.0 | |||||||
| 07 | 15:59 | NW 17 G 31 | 10.00 | Mostly Cloudy | BKN065 | 57.2 | 26.6 | 31% | 29.79 | 0.0 | |||||||
| 07 | 14:59 | W 13 G 25 | 10.00 | Partly Cloudy | SCT060 | 57.2 | 28.4 | 33% | 29.81 | 0.0 | |||||||
| 07 | 13:48 | W 17 G 28 | 10.00 | Partly Cloudy | SCT060 | 55.4 | 30.2 | 38% | 29.83 | 0.0 | |||||||
| 07 | 11:55 | W 17 G 23 | 10.00 | Partly Cloudy | SCT050 | 55.4 | 30.2 | 38% | 29.84 | 0.0 | |||||||
| 07 | 10:48 | W 16 G 20 | 10.00 | Partly Cloudy | SCT050 | 51.8 | 28.4 | 41% | 29.86 | 0.0 | |||||||
| Date | Time (edt) | Wind (mph) | Vis. (mi.) | Weather | Sky Cond. | Air | Dwpt | Max. | Min. | Relative Humidity | Wind Chill (°F) | Heat Index (°F) | altimeter (in) | sea level (mb) | 1 hr | 3 hr | 6 hr |
| 6 hour | |||||||||||||||||
| Temperature (ºF) | Pressure | Precipitation (in) | |||||||||||||||